Historyczne dane pomiarowe

Dodano dane terminowe – wersja testowa.

Dane z okresu 1951-2019

Wersja bazy: 1.34 [2019-03-16, lista zmian], aktualizacja planowana na 2019-04-15

Dane meteo z obszaru Polski uzyskane na podstawie danych udostępnionych przez Instytut Meteorologii i Gospodarki Wodnej – Państwowy Instytut Badawczy.

 

Wybierz Datę:    

       

TemperaturaWilgotnośćWiatrCiśnienieOpadyŚniegCzas trwania zjawisk
 Stacja t tx tn tng RH VA  wxwx mslp ppp RRR   cm mm wxwxwxwxwxwxwx
1994-08-14 16.0 21.7 11.9 11.1 66.0- 5.7 5.7---- 0.0------------
1994-08-13 18.3 24.3 14.2 13.9 80.3- 5.7 5.0---- 1.5------------
1994-08-12 18.4 22.7 14.7 14.4 85.5- 6.3 6.3---- 0.1------------
1994-08-11 19.9 26.9 14.4 13.7 81.0- 5.7 5.7---- 18.9------------
1994-08-10 20.5 26.8 16.2 16.2 74.0- 6.0 3.3---- 0.0------------
1994-08-09 21.8 31.8 17.5 17.5 83.0- 6.3 6.0---- 4.3------------
1994-08-08 23.3 32.1 18.5 17.3 72.5- 6.3 1.7---- 8.6------------
1994-08-07 22.4 30.6 12.8 11.9 65.0- 3.0 2.3---- 0.0------------
1994-08-06 23.2 31.6 12.3 11.6 55.0- 0.0 2.3---- 0.0------------
1994-08-05 23.7 30.3 14.2 14.2 63.0- 0.3 1.0---- 0.0------------
1994-08-04 21.6 28.1 16.3 16.2 82.0- 4.3 3.0---- 0.0------------
1994-08-03 23.8 32.1 18.3 17.5 71.8- 5.3 1.7---- 3.7------------
1994-08-02 24.4 33.1 13.3 12.1 57.3- 1.0 2.7---- 0.0------------
1994-08-01 24.9 33.1 14.9 14.4 59.0- 0.7 2.3---- 0.0------------
1994-07-31 25.8 33.6 14.6 14.4 61.5- 1.0 1.7---- 0.0------------
1994-07-30 25.0 32.3 13.9 13.2 56.8- 0.7 1.7---- 0.0------------
1994-07-29 24.4 33.5 12.0 11.5 51.0- 0.0 1.0---- 0.0------------
1994-07-28 24.1 32.3 12.9 12.3 53.5- 0.0 2.3---- 0.0------------
1994-07-27 23.9 31.8 12.9 12.0 57.8- 3.3 1.0---- 0.0------------
1994-07-26 23.8 32.5 11.9 11.0 55.5- 0.7 3.0---- 0.0------------
1994-07-25 23.3 30.8 12.3 11.5 55.0- 1.0 3.7---- 0.0------------
1994-07-24 22.1 29.7 11.2 10.5 57.3- 2.7 1.0---- 0.0------------
1994-07-23 21.4 28.3 12.2 11.5 61.8- 1.3 0.7---- 0.0------------
1994-07-22 21.1 28.5 10.4 10.0 58.3- 0.7 2.7---- 0.0------------
1994-07-21 19.5 26.6 10.2 9.4 62.8- 1.7 1.3---- 0.0------------
1994-07-20 18.9 25.1 11.9 11.5 61.8- 1.7 1.7---- 0.0------------
1994-07-19 20.2 26.2 16.0 16.0 75.3- 4.0 2.3---- 0.0------------
1994-07-18 19.1 25.4 16.3 14.8 88.3- 6.7 1.7---- 6.2------------
1994-07-17 23.4 31.6 14.3 13.0 66.3- 2.7 5.0---- 14.0------------
1994-07-16 22.0 30.7 10.6 9.0 65.3- 1.3 2.3---- 0.0------------
1994-07-15 22.2 27.7 12.9 11.9 63.5- 1.0 3.7---- 0.0------------
1994-07-14 21.6 28.4 14.2 12.9 68.5- 4.0 4.0---- 0.0------------
1994-07-13 21.9 28.3 11.2 10.5 56.8- 1.7 3.0---- 0.0------------
1994-07-12 21.1 27.8 12.9 11.7 66.0- 4.0 4.7---- 0.0------------
1994-07-11 16.8 19.9 11.5 11.5 85.8- 6.7 4.3---- 0.0------------
1994-07-10 15.6 22.2 9.4 8.5 85.8- 6.7 2.3---- 2.0------------
1994-07-09 15.2 21.6 10.2 9.0 76.0- 6.7 3.3---- 0.1------------
1994-07-08 18.8 24.1 14.9 14.9 71.5- 6.7 6.7---- 0.3------------
1994-07-07 19.6 27.1 9.5 8.7 66.8- 5.0 2.3---- 0.8------------
1994-07-06 20.3 25.6 12.2 11.5 62.8- 1.7 3.3---- 0.0------------
1994-07-05 20.9 27.9 10.9 9.5 62.3- 2.3 2.3---- 0.0------------
1994-07-04 20.4 28.1 9.0 8.5 60.0- 0.3 3.0---- 0.0------------
1994-07-03 18.4 25.8 9.7 7.8 63.3- 0.0 1.7---- 0.0------------
1994-07-02 18.9 25.1 10.5 10.5 64.3- 0.3 3.3---- 0.0------------
1994-07-01 20.2 24.1 16.2 16.2 70.0- 4.3 3.3---- 0.0------------
1994-06-30 22.9 31.8 13.7 13.4 73.8- 3.0 2.0---- 5.9------------
1994-06-29 23.7 30.9 14.6 14.0 66.0- 0.0 1.3---- 0.0------------
1994-06-28 24.7 29.9 18.3 17.3 67.5- 0.3 2.0---- 0.0------------
1994-06-27 24.7 30.7 15.6 13.9 59.3- 2.3 5.0---- 0.0------------
1994-06-26 18.6 28.2 8.0 7.2 63.8- 0.0 3.3---- 0.0------------
1994-06-25 15.3 22.3 5.5 4.4 61.8- 0.0 1.0---- 0.0------------
1994-06-24 14.5 20.1 7.6 6.5 52.8- 0.3 7.0---- 0.0------------
1994-06-23 18.7 23.3 16.5 11.3 57.3- 3.3 8.3---- 0.0------------
1994-06-22 18.5 26.1 7.1 5.9 66.8- 2.7 4.3---- 0.7------------
1994-06-21 16.4 21.3 8.2 7.1 65.3- 1.0 3.7---- 0.0------------
1994-06-20 18.1 21.9 13.7 12.5 70.0- 3.0 7.7---- 0.0------------
1994-06-19 16.7 23.3 10.9 10.9 74.5- 5.0 6.0---- 0.0------------
1994-06-18 12.1 19.0 4.2 3.4 69.3- 4.0 7.3---- 3.5------------
1994-06-17 11.1 15.6 8.7 8.4 78.3- 6.3 5.7---- 0.0------------
1994-06-16 13.8 19.5 6.8 5.9 69.5- 4.0 6.3---- 2.5------------
322.3 ms

 

Źródłem pochodzenia danych jest Instytut Meteorologii i Gospodarki Wodnej – Państwowy Instytut Badawczy. Dane Instytutu Meteorologii i Gospodarki Wodnej – Państwowego Instytutu Badawczego zostały przetworzone.

Dane źródłowe można odnaleźć na stronie https://dane.imgw.pl